Time;durP1;ratioP1;P1;durP2;ratioP2;P2;SDS_P1;SDS_P2;PMS_P1;PMS_P2;Temp;Humidity;BMP_temperature;BMP_pressure;BME280_temperature;BME280_humidity;BME280_pressure;Samples;Min_cycle;Max_cycle;Signal;HPM_P1;HPM_P2
2022/04/23 00:01:11;;;;;;;16.57;14.87;;;12.50;99.90;;;;;;5052247;28;20314;-85
2022/04/23 00:03:38;;;;;;;20.37;14.63;;;12.40;99.90;;;;;;5052456;28;20217;-85
2022/04/23 00:06:06;;;;;;;18.47;15.70;;;12.30;99.90;;;;;;5052553;28;20210;-84
2022/04/23 00:08:33;;;;;;;17.07;15.30;;;12.20;99.90;;;;;;5052511;28;20569;-85
2022/04/23 00:11:01;;;;;;;16.90;15.20;;;12.20;99.90;;;;;;5052102;28;20207;-85
2022/04/23 00:13:28;;;;;;;17.40;15.63;;;12.20;99.90;;;;;;5052703;28;20207;-85
2022/04/23 00:15:54;;;;;;;15.77;14.30;;;12.10;99.90;;;;;;5052460;28;20556;-84
2022/04/23 00:18:21;;;;;;;16.47;14.87;;;12.10;99.90;;;;;;5052387;28;20230;-85
2022/04/23 00:20:48;;;;;;;16.73;15.13;;;12.10;99.90;;;;;;5052046;28;20591;-85
2022/04/23 00:23:15;;;;;;;18.47;16.57;;;12.20;99.90;;;;;;5052118;28;20545;-84
2022/04/23 00:25:45;;;;;;;17.43;15.20;;;12.40;99.90;;;;;;5052209;28;20545;-83
2022/04/23 00:28:13;;;;;;;17.50;15.70;;;12.50;99.90;;;;;;5052498;28;20256;-84
2022/04/23 00:30:40;;;;;;;16.63;14.93;;;12.40;99.90;;;;;;5052622;28;20371;-85
2022/04/23 00:33:08;;;;;;;16.67;15.17;;;12.40;99.90;;;;;;5052325;28;20210;-84
2022/04/23 00:35:34;;;;;;;16.27;14.57;;;12.50;99.90;;;;;;5052195;28;20248;-83
2022/04/23 00:38:01;;;;;;;15.80;14.20;;;12.40;99.90;;;;;;5052412;28;20213;-84
2022/04/23 00:40:28;;;;;;;16.77;14.87;;;12.30;99.90;;;;;;5052112;28;20647;-84
2022/04/23 00:42:57;;;;;;;16.30;14.67;;;12.50;99.90;;;;;;5055695;28;20202;-84
2022/04/23 00:45:27;;;;;;;18.47;14.97;;;12.20;99.90;;;;;;5055974;28;20206;-84
2022/04/23 00:47:54;;;;;;;18.65;16.35;;;12.20;99.90;;;;;;5054868;28;20920;-84
2022/04/23 00:50:22;;;;;;;16.87;15.37;;;12.40;99.90;;;;;;5055178;28;20199;-84
2022/04/23 00:52:50;;;;;;;16.30;14.80;;;12.40;99.90;;;;;;5055623;28;20226;-84
2022/04/23 00:55:17;;;;;;;16.50;14.77;;;12.40;99.90;;;;;;5055052;28;20661;-85
2022/04/23 00:57:44;;;;;;;17.17;14.43;;;12.30;99.90;;;;;;5055701;28;20654;-84
2022/04/23 01:00:12;;;;;;;16.50;14.90;;;12.30;99.90;;;;;;5054524;28;20243;-83
2022/04/23 01:02:40;;;;;;;16.23;14.70;;;12.40;99.90;;;;;;5055390;28;20229;-84
2022/04/23 01:05:08;;;;;;;16.43;14.57;;;12.30;99.90;;;;;;5055291;28;20202;-84
2022/04/23 01:07:38;;;;;;;21.80;15.00;;;12.30;99.90;;;;;;5055543;28;20202;-84
2022/04/23 01:10:06;;;;;;;16.53;14.90;;;12.30;99.90;;;;;;5055237;28;20234;-84
2022/04/23 01:12:35;;;;;;;15.77;14.17;;;12.40;99.90;;;;;;5055344;28;20211;-84
2022/04/23 01:15:04;;;;;;;16.70;14.97;;;12.40;99.90;;;;;;5054916;28;20287;-83
2022/04/23 01:17:31;;;;;;;16.60;15.00;;;12.50;99.90;;;;;;5034083;28;20575;-84
2022/04/23 01:20:07;;;;;;;16.73;15.00;;;12.70;99.90;;;;;;5033085;28;20855;-83
2022/04/23 01:22:36;;;;;;;16.33;14.50;;;12.50;99.90;;;;;;5034731;28;20210;-84
2022/04/23 01:25:04;;;;;;;18.27;14.83;;;12.40;99.90;;;;;;5034677;28;20210;-83
2022/04/23 01:27:31;;;;;;;16.57;15.07;;;12.30;99.90;;;;;;5035185;28;20696;-84
2022/04/23 01:29:58;;;;;;;17.67;14.83;;;12.30;99.90;;;;;;5034718;28;20215;-84
2022/04/23 01:32:25;;;;;;;16.10;14.53;;;12.20;99.90;;;;;;5034218;28;20553;-84
2022/04/23 01:34:52;;;;;;;19.60;14.87;;;12.20;99.90;;;;;;5035476;28;20207;-85
2022/04/23 01:37:20;;;;;;;16.20;14.70;;;12.10;99.90;;;;;;5035036;28;20203;-85
2022/04/23 01:39:48;;;;;;;17.07;15.37;;;12.30;99.90;;;;;;5034385;28;20269;-84
2022/04/23 01:42:17;;;;;;;16.43;14.93;;;12.00;99.90;;;;;;5035007;28;20257;-84
2022/04/23 01:44:44;;;;;;;17.67;15.77;;;12.20;99.90;;;;;;5034754;28;20590;-85
2022/04/23 01:47:11;;;;;;;17.40;15.63;;;12.00;99.90;;;;;;5034944;28;20214;-84
2022/04/23 01:49:38;;;;;;;17.23;15.50;;;11.90;99.90;;;;;;5034546;28;20210;-85
2022/04/23 01:52:05;;;;;;;17.60;15.80;;;12.00;99.90;;;;;;5033960;28;20541;-84
2022/04/23 01:54:34;;;;;;;18.47;16.50;;;12.10;99.90;;;;;;5033794;28;20265;-85
2022/04/23 01:57:01;;;;;;;18.47;16.03;;;12.00;99.90;;;;;;5034279;28;20207;-85
2022/04/23 01:59:28;;;;;;;17.07;15.47;;;12.10;99.90;;;;;;5034324;28;20238;-84
2022/04/23 02:01:55;;;;;;;19.37;15.97;;;12.20;99.90;;;;;;5034070;28;20214;-83
2022/04/23 02:04:22;;;;;;;18.60;16.70;;;12.20;99.90;;;;;;5034136;28;20226;-84
2022/04/23 02:06:49;;;;;;;18.17;16.30;;;12.20;99.90;;;;;;5034347;28;20203;-84
2022/04/23 02:09:16;;;;;;;19.43;16.60;;;12.00;99.90;;;;;;5034347;28;20250;-84
2022/04/23 02:11:45;;;;;;;18.33;16.50;;;12.00;99.90;;;;;;5034333;28;20207;-86
2022/04/23 02:14:11;;;;;;;19.87;17.70;;;12.00;99.90;;;;;;5034630;28;20256;-84
2022/04/23 02:16:39;;;;;;;19.03;17.13;;;12.00;99.90;;;;;;5034361;28;20207;-84
2022/04/23 02:19:06;;;;;;;19.37;17.40;;;12.00;99.90;;;;;;5034137;28;20261;-84
2022/04/23 02:21:32;;;;;;;18.53;16.63;;;12.10;99.90;;;;;;5033951;28;20261;-84
2022/04/23 02:24:01;;;;;;;21.70;19.50;;;12.10;99.90;;;;;;5032838;28;20438;-84
2022/04/23 02:26:28;;;;;;;19.23;17.33;;;12.30;99.90;;;;;;5033899;28;20717;-84
2022/04/23 02:28:56;;;;;;;20.60;18.60;;;12.30;99.90;;;;;;5033012;28;20547;-84
2022/04/23 02:31:23;;;;;;;18.43;16.77;;;12.40;99.90;;;;;;5033300;28;20208;-84
2022/04/23 02:33:50;;;;;;;18.67;16.77;;;12.10;99.90;;;;;;5033818;28;20203;-84
2022/04/23 02:36:17;;;;;;;18.67;16.57;;;12.00;99.90;;;;;;5033739;28;20207;-84
2022/04/23 02:38:44;;;;;;;21.23;16.80;;;12.00;99.90;;;;;;5033787;28;20654;-83
2022/04/23 02:41:11;;;;;;;18.53;16.63;;;12.10;99.90;;;;;;5034012;28;20207;-84
2022/04/23 02:43:40;;;;;;;20.53;18.47;;;12.30;99.90;;;;;;5033851;28;20214;-84
2022/04/23 02:46:08;;;;;;;20.77;18.80;;;12.40;99.90;;;;;;5033108;28;20681;-84
2022/04/23 02:48:35;;;;;;;21.27;19.07;;;12.20;99.90;;;;;;5033652;28;20666;-84
2022/04/23 02:51:03;;;;;;;20.43;18.53;;;12.10;99.90;;;;;;5033098;28;20678;-84
2022/04/23 02:53:29;;;;;;;21.87;19.70;;;12.10;99.90;;;;;;5033611;28;20203;-84
2022/04/23 02:55:57;;;;;;;21.53;19.33;;;12.00;99.90;;;;;;5033378;28;20203;-84
2022/04/23 02:58:25;;;;;;;21.00;18.80;;;12.10;99.90;;;;;;5033220;28;20245;-84
2022/04/23 03:00:53;;;;;;;21.00;18.90;;;12.10;99.90;;;;;;5032603;28;20242;-84
2022/04/23 03:03:22;;;;;;;20.97;18.87;;;12.20;99.90;;;;;;5033190;28;20214;-84
2022/04/23 03:05:53;;;;;;;20.50;18.40;;;12.00;99.90;;;;;;5031737;28;20203;-85
2022/04/23 03:08:23;;;;;;;21.47;19.33;;;12.00;99.90;;;;;;5034083;28;20203;-84
2022/04/23 03:10:50;;;;;;;22.37;19.93;;;12.10;99.90;;;;;;5031828;28;20198;-85
2022/04/23 03:13:17;;;;;;;21.47;19.20;;;12.00;99.90;;;;;;5032984;28;20207;-84
2022/04/23 03:15:45;;;;;;;21.87;19.70;;;12.10;99.90;;;;;;5033362;28;20207;-84
2022/04/23 03:18:13;;;;;;;20.47;18.53;;;12.20;99.90;;;;;;5033079;28;20210;-84
2022/04/23 03:20:42;;;;;;;22.93;20.63;;;12.00;99.90;;;;;;5032537;28;20223;-85
2022/04/23 03:23:09;;;;;;;22.43;20.03;;;11.80;99.90;;;;;;5033437;28;20218;-84
2022/04/23 03:25:36;;;;;;;21.83;19.70;;;11.90;99.90;;;;;;5033066;28;20203;-85
2022/04/23 03:28:03;;;;;;;22.90;19.67;;;11.70;99.90;;;;;;5033533;28;20199;-86
2022/04/23 03:30:31;;;;;;;22.37;20.13;;;11.60;99.90;;;;;;5032498;28;20211;-86
2022/04/23 03:32:59;;;;;;;22.87;20.53;;;11.60;99.90;;;;;;5033358;28;20210;-85
2022/04/23 03:35:26;;;;;;;22.07;19.93;;;11.80;99.90;;;;;;5032666;28;20207;-85
2022/04/23 03:37:55;;;;;;;21.10;19.10;;;11.60;99.90;;;;;;5032782;28;20214;-85
2022/04/23 03:40:22;;;;;;;23.17;20.67;;;11.60;99.90;;;;;;5032731;28;20670;-85
2022/04/23 03:42:49;;;;;;;23.20;20.50;;;11.50;99.90;;;;;;5033075;28;20206;-85
2022/04/23 03:45:18;;;;;;;23.13;20.77;;;11.70;99.90;;;;;;5033007;28;20203;-84
2022/04/23 03:47:46;;;;;;;23.47;21.07;;;11.80;99.90;;;;;;5032911;28;20252;-85
2022/04/23 03:50:13;;;;;;;23.33;20.33;;;11.90;99.90;;;;;;5032762;28;20213;-85
2022/04/23 03:52:40;;;;;;;22.93;20.33;;;11.70;99.90;;;;;;5032802;28;20681;-85
2022/04/23 03:55:11;;;;;;;21.87;19.77;;;11.80;99.90;;;;;;5032245;28;20543;-85
2022/04/23 03:57:45;;;;;;;23.60;21.07;;;11.80;99.90;;;;;;5032744;28;20203;-85
2022/04/23 04:00:14;;;;;;;22.60;20.40;;;11.70;99.90;;;;;;5032767;28;20627;-86
2022/04/23 04:02:41;;;;;;;22.10;19.90;;;11.60;99.90;;;;;;5033535;28;20717;-86
2022/04/23 04:05:10;;;;;;;22.70;20.50;;;11.70;99.90;;;;;;5050023;28;20282;-86
2022/04/23 04:07:40;;;;;;;23.00;20.60;;;11.60;99.90;;;;;;5052053;28;20658;-85
2022/04/23 04:10:11;;;;;;;24.20;21.90;;;11.70;99.90;;;;;;5052656;28;20202;-86
2022/04/23 04:12:38;;;;;;;21.97;19.87;;;11.60;99.90;;;;;;5052747;28;20527;-84
2022/04/23 04:15:06;;;;;;;22.87;20.43;;;11.60;99.90;;;;;;5052595;28;20225;-85
2022/04/23 04:17:33;;;;;;;23.37;20.87;;;11.50;99.90;;;;;;5054795;28;20210;-85
2022/04/23 04:20:00;;;;;;;20.73;18.57;;;11.50;99.90;;;;;;5056177;28;20222;-86
2022/04/23 04:22:27;;;;;;;22.33;20.03;;;11.50;99.90;;;;;;5056211;28;20281;-85
2022/04/23 04:24:54;;;;;;;22.80;19.90;;;11.60;99.90;;;;;;5056172;28;20206;-85
2022/04/23 04:27:23;;;;;;;21.63;19.47;;;11.50;99.90;;;;;;5055928;28;20206;-85
2022/04/23 04:29:49;;;;;;;22.83;20.53;;;11.60;99.90;;;;;;5056190;28;20202;-85
2022/04/23 04:32:16;;;;;;;25.67;20.80;;;11.60;99.90;;;;;;5055942;28;20199;-85
2022/04/23 04:34:43;;;;;;;22.70;20.43;;;11.60;99.90;;;;;;5056070;28;20757;-85
2022/04/23 04:37:11;;;;;;;22.20;19.97;;;11.60;99.90;;;;;;5056219;28;20187;-85
2022/04/23 04:39:40;;;;;;;23.00;19.83;;;11.60;99.90;;;;;;5056003;28;20819;-86
2022/04/23 04:42:07;;;;;;;22.00;20.00;;;11.50;99.90;;;;;;5055989;28;20191;-85
2022/04/23 04:44:37;;;;;;;21.40;19.20;;;11.50;99.90;;;;;;5055715;28;20573;-85
2022/04/23 04:47:05;;;;;;;23.17;20.90;;;11.40;99.90;;;;;;5055278;28;20904;-85
2022/04/23 04:49:31;;;;;;;23.00;20.70;;;11.40;99.90;;;;;;5055870;28;20237;-85
2022/04/23 04:51:58;;;;;;;21.63;19.63;;;11.40;99.90;;;;;;5055673;28;20277;-86
2022/04/23 04:54:25;;;;;;;22.40;20.27;;;11.50;99.90;;;;;;5055687;28;20207;-86
2022/04/23 04:56:53;;;;;;;24.40;21.27;;;11.30;99.90;;;;;;5055720;28;20207;-85
2022/04/23 04:59:22;;;;;;;23.03;20.67;;;11.30;99.90;;;;;;5055747;28;20206;-85
2022/04/23 05:01:50;;;;;;;22.27;20.17;;;11.40;99.90;;;;;;5045832;28;20214;-85
2022/04/23 05:04:17;;;;;;;22.83;20.40;;;11.40;99.90;;;;;;5033931;28;20215;-84
2022/04/23 05:06:44;;;;;;;23.20;20.87;;;11.40;99.90;;;;;;5033728;28;20592;-83
2022/04/23 05:09:13;;;;;;;24.67;20.07;;;11.50;99.90;;;;;;5035651;28;20215;-85
2022/04/23 05:11:40;;;;;;;26.05;23.55;;;11.60;99.90;;;;;;5034908;28;20435;-84
2022/04/23 05:14:06;;;;;;;24.00;21.63;;;11.60;99.90;;;;;;5035137;28;20689;-85
2022/04/23 05:16:39;;;;;;;23.77;21.07;;;11.50;99.90;;;;;;5035413;28;20206;-85
2022/04/23 05:19:07;;;;;;;22.53;20.13;;;11.50;99.90;;;;;;5035223;28;20199;-85
2022/04/23 05:21:37;;;;;;;22.03;19.83;;;11.50;99.90;;;;;;5035149;28;20572;-85
2022/04/23 05:24:06;;;;;;;23.87;21.37;;;11.50;99.90;;;;;;5035253;28;20214;-85
2022/04/23 05:26:36;;;;;;;23.37;21.10;;;11.50;99.90;;;;;;5035215;28;20214;-85
2022/04/23 05:29:04;;;;;;;22.67;20.43;;;11.60;99.90;;;;;;5034905;28;20780;-84
2022/04/23 05:31:32;;;;;;;23.27;21.00;;;11.60;99.90;;;;;;5034962;28;20235;-85
2022/04/23 05:34:00;;;;;;;22.60;20.23;;;11.60;99.90;;;;;;5035004;28;20705;-85
2022/04/23 05:36:30;;;;;;;24.77;22.48;;;11.50;99.90;;;;;;5034567;28;20435;-85
2022/04/23 05:38:56;;;;;;;23.47;20.00;;;11.60;99.90;;;;;;5034714;28;20225;-85
2022/04/23 05:41:24;;;;;;;23.73;21.23;;;11.50;99.90;;;;;;5034353;28;20261;-86
2022/04/23 05:43:52;;;;;;;22.17;19.87;;;11.60;99.90;;;;;;5035162;28;20217;-85
2022/04/23 05:46:19;;;;;;;22.47;20.30;;;11.80;99.90;;;;;;5053758;28;20256;-86
2022/04/23 05:48:45;;;;;;;22.83;20.10;;;11.70;99.90;;;;;;5052792;28;20199;-85
2022/04/23 05:51:12;;;;;;;23.50;21.10;;;11.60;99.90;;;;;;5045964;28;20210;-85
2022/04/23 05:53:41;;;;;;;22.97;20.50;;;11.70;99.90;;;;;;5040313;28;20203;-86
2022/04/23 05:56:08;;;;;;;21.83;19.50;;;11.70;99.90;;;;;;5037558;28;20199;-85
2022/04/23 05:58:35;;;;;;;22.23;19.93;;;11.70;99.90;;;;;;5044888;28;20194;-85
2022/04/23 06:01:02;;;;;;;25.20;22.95;;;11.90;99.90;;;;;;5049437;28;20445;-86
2022/04/23 06:03:29;;;;;;;22.00;19.93;;;12.00;99.90;;;;;;5039195;28;20214;-85
2022/04/23 06:05:56;;;;;;;23.73;21.47;;;12.10;99.90;;;;;;5036473;28;20210;-85
2022/04/23 06:08:23;;;;;;;22.73;20.30;;;12.00;99.90;;;;;;5033939;28;20226;-85
2022/04/23 06:10:51;;;;;;;22.43;20.23;;;11.90;99.90;;;;;;5033826;28;20218;-85
2022/04/23 06:13:17;;;;;;;23.27;20.77;;;11.90;99.90;;;;;;5047953;28;20202;-86
2022/04/23 06:15:45;;;;;;;22.50;20.30;;;11.80;99.90;;;;;;5053920;28;20552;-86
2022/04/23 06:18:13;;;;;;;23.43;20.17;;;12.00;99.90;;;;;;5053903;28;20285;-86
2022/04/23 06:20:40;;;;;;;23.20;20.03;;;12.00;99.90;;;;;;5053120;28;20226;-84
2022/04/23 06:23:08;;;;;;;23.73;21.17;;;11.90;99.90;;;;;;5052788;28;20198;-84
2022/04/23 06:25:36;;;;;;;23.00;20.43;;;12.00;99.90;;;;;;5033841;28;20207;-85
2022/04/23 06:28:04;;;;;;;22.00;19.67;;;12.20;99.90;;;;;;5033469;28;20613;-85
2022/04/23 06:30:31;;;;;;;21.87;19.67;;;12.10;99.90;;;;;;5033799;28;20195;-85
2022/04/23 06:32:58;;;;;;;22.40;20.13;;;12.10;99.90;;;;;;5033932;28;20658;-85
2022/04/23 06:35:25;;;;;;;22.00;19.80;;;12.10;99.90;;;;;;5033717;28;20674;-85
2022/04/23 06:37:54;;;;;;;23.00;20.80;;;12.10;99.90;;;;;;5033429;28;20280;-85
2022/04/23 06:40:21;;;;;;;22.33;19.93;;;12.20;99.90;;;;;;5032609;28;20225;-85
2022/04/23 06:42:47;;;;;;;24.07;19.83;;;12.10;99.90;;;;;;5033558;28;20214;-86
2022/04/23 06:45:15;;;;;;;22.73;20.27;;;12.00;99.90;;;;;;5032230;28;20206;-85
2022/04/23 06:47:42;;;;;;;22.83;20.30;;;12.00;99.90;;;;;;5033743;28;20200;-85
2022/04/23 06:50:10;;;;;;;23.10;20.50;;;11.90;99.90;;;;;;5033183;28;20645;-85
2022/04/23 06:52:36;;;;;;;22.53;20.07;;;12.00;99.90;;;;;;5047718;28;20221;-85
2022/04/23 06:55:04;;;;;;;23.60;21.10;;;12.10;99.90;;;;;;5052957;28;20214;-85
2022/04/23 06:57:31;;;;;;;21.73;19.53;;;12.20;99.90;;;;;;5053196;28;20209;-86
2022/04/23 07:00:01;;;;;;;21.93;19.73;;;12.10;99.90;;;;;;5053149;28;20226;-85
2022/04/23 07:02:29;;;;;;;23.60;19.63;;;12.30;99.90;;;;;;5052163;28;20202;-84
2022/04/23 07:05:02;;;;;;;22.57;20.37;;;12.40;99.90;;;;;;5053034;28;20209;-85
2022/04/23 07:07:28;;;;;;;21.33;19.03;;;12.40;99.90;;;;;;5053271;28;20199;-85
2022/04/23 07:09:55;;;;;;;21.97;19.70;;;12.40;99.90;;;;;;5053014;28;20202;-84
2022/04/23 07:12:22;;;;;;;21.20;19.13;;;12.50;99.90;;;;;;5059201;28;20203;-85
2022/04/23 07:14:49;;;;;;;21.10;18.93;;;12.60;99.90;;;;;;5072770;28;20209;-85
2022/04/23 07:17:15;;;;;;;21.57;19.47;;;12.70;99.90;;;;;;5072252;28;20665;-84
2022/04/23 07:19:44;;;;;;;20.87;18.70;;;12.80;99.90;;;;;;5072103;28;20207;-84
2022/04/23 07:22:11;;;;;;;20.97;18.67;;;13.00;99.90;;;;;;5072126;28;20230;-85
2022/04/23 07:24:38;;;;;;;23.03;19.67;;;13.00;99.90;;;;;;5073201;28;20282;-84
2022/04/23 07:27:05;;;;;;;20.10;18.10;;;13.00;99.90;;;;;;5072888;28;20207;-84
2022/04/23 07:29:32;;;;;;;23.13;20.00;;;13.00;99.90;;;;;;5073405;28;20212;-91
2022/04/23 07:31:59;;;;;;;22.53;20.30;;;13.10;99.90;;;;;;5073443;28;20227;-90
2022/04/23 07:40:05;;;;;;;20.40;18.27;;;13.20;99.90;;;;;;5063150;28;20568;-91
2022/04/23 07:42:33;;;;;;;19.97;17.90;;;13.20;99.90;;;;;;5073584;28;20227;-90
2022/04/23 07:44:59;;;;;;;19.50;17.60;;;13.40;99.90;;;;;;5073784;28;20290;-88
2022/04/23 07:47:28;;;;;;;19.17;17.37;;;13.40;99.90;;;;;;5073553;28;20577;-89
2022/04/23 07:49:54;;;;;;;20.50;18.50;;;13.50;99.90;;;;;;5075009;28;20204;-89
2022/04/23 07:52:23;;;;;;;19.67;17.50;;;13.60;99.90;;;;;;5077647;28;20296;-91
2022/04/23 07:54:49;;;;;;;20.03;18.03;;;13.50;99.90;;;;;;5076782;28;20654;-91
2022/04/23 07:57:22;;;;;;;21.60;18.10;;;13.50;99.90;;;;;;5077258;28;20547;-90
2022/04/23 07:59:49;;;;;;;21.37;18.67;;;13.60;99.90;;;;;;5077989;28;20229;-88
2022/04/23 08:02:16;;;;;;;21.03;18.87;;;13.70;99.90;;;;;;5077416;28;20236;-91
2022/04/23 08:04:42;;;;;;;19.40;17.57;;;13.90;99.90;;;;;;5077165;28;20207;-89
2022/04/23 08:07:09;;;;;;;18.93;17.17;;;14.00;99.90;;;;;;5077549;28;20198;-90
2022/04/23 08:09:39;;;;;;;18.77;16.97;;;14.00;99.90;;;;;;5068781;28;20213;-90
2022/04/23 08:12:07;;;;;;;19.23;17.50;;;14.10;99.90;;;;;;5054044;28;20205;-88
2022/04/23 08:14:35;;;;;;;18.10;16.30;;;14.20;99.90;;;;;;5056548;28;20197;-86
2022/04/23 08:17:01;;;;;;;18.53;16.70;;;14.30;99.90;;;;;;5056416;28;20200;-89
2022/04/23 08:19:29;;;;;;;19.37;17.57;;;14.30;99.90;;;;;;5056090;28;20202;-91
2022/04/23 08:21:56;;;;;;;19.63;17.60;;;14.50;99.90;;;;;;5054445;28;20257;-91
2022/04/23 08:24:23;;;;;;;21.33;19.33;;;14.60;99.90;;;;;;5056744;28;20429;-87
2022/04/23 08:26:51;;;;;;;19.87;17.77;;;14.70;99.90;;;;;;5057657;28;20203;-84
2022/04/23 08:32:02;;;;;;;18.37;16.37;;;14.80;99.90;;;;;;5038985;28;20206;-87
2022/04/23 08:34:28;;;;;;;23.27;16.80;;;15.00;99.90;;;;;;5056570;28;20589;-87
2022/04/23 08:36:55;;;;;;;19.43;17.40;;;15.10;99.90;;;;;;5056489;28;20440;-86
2022/04/23 08:39:22;;;;;;;17.83;16.23;;;15.30;99.90;;;;;;5056113;28;20559;-86
2022/04/23 08:41:50;;;;;;;18.43;16.33;;;15.30;99.90;;;;;;5056162;28;20601;-88
2022/04/23 08:44:17;;;;;;;19.37;17.37;;;15.20;99.90;;;;;;5056178;28;20254;-87
2022/04/23 08:46:45;;;;;;;18.10;16.43;;;15.40;99.90;;;;;;5056269;28;20562;-86
2022/04/23 08:49:14;;;;;;;20.40;18.48;;;15.20;99.90;;;;;;5056241;28;20438;-89
2022/04/23 08:51:43;;;;;;;19.43;17.67;;;15.30;99.90;;;;;;5056759;28;20210;-89
2022/04/23 08:54:11;;;;;;;18.93;17.03;;;15.30;99.90;;;;;;5055570;28;20577;-89
2022/04/23 08:56:39;;;;;;;19.10;17.13;;;15.30;99.90;;;;;;5056480;28;20202;-90
2022/04/23 08:59:09;;;;;;;19.53;17.53;;;15.40;99.90;;;;;;5057823;28;20739;-88
2022/04/23 09:01:37;;;;;;;18.57;16.77;;;15.50;99.90;;;;;;5075458;28;20228;-89
2022/04/23 09:04:04;;;;;;;18.90;17.00;;;15.70;99.90;;;;;;5056337;28;20210;-93
2022/04/23 09:06:39;;;;;;;18.80;16.33;;;15.80;99.90;;;;;;5061875;28;20221;-85
2022/04/23 09:09:13;;;;;;;19.47;17.40;;;15.70;99.90;;;;;;5061276;28;20251;-86
2022/04/23 09:11:42;;;;;;;19.38;17.67;;;15.90;99.90;;;;;;5058089;28;20438;-86
2022/04/23 09:14:23;;;;;;;19.87;16.97;;;16.10;99.90;;;;;;5058814;28;20230;-84
2022/04/23 09:25:15;;;;;;;17.50;15.90;;;16.40;99.90;;;;;;5063338;28;20195;-89
2022/04/23 09:27:43;;;;;;;18.47;16.63;;;16.40;99.90;;;;;;5058263;28;20264;-88
2022/04/23 09:30:14;;;;;;;19.20;17.37;;;16.40;99.90;;;;;;5058627;28;20234;-90
2022/04/23 09:33:00;;;;;;;18.70;16.73;;;16.30;99.90;;;;;;5055446;28;20188;-88
2022/04/23 09:35:28;;;;;;;19.83;17.73;;;16.30;99.90;;;;;;5054406;28;20193;-84
2022/04/23 09:38:13;;;;;;;19.10;17.10;;;16.50;99.90;;;;;;5056514;28;20205;-89
2022/04/23 09:40:41;;;;;;;20.97;18.70;;;16.50;99.90;;;;;;5057267;28;20196;-90
2022/04/23 09:43:11;;;;;;;18.00;16.23;;;16.70;99.90;;;;;;5056193;28;20232;-86
2022/04/23 09:45:41;;;;;;;18.30;16.53;;;16.80;99.90;;;;;;5056635;28;20205;-87
2022/04/23 09:48:18;;;;;;;17.50;15.80;;;16.90;99.90;;;;;;5056600;28;20670;-90
2022/04/23 09:50:46;;;;;;;17.87;16.27;;;16.90;99.90;;;;;;5055282;28;20204;-88
2022/04/23 09:53:15;;;;;;;17.83;16.13;;;16.80;99.90;;;;;;5055580;28;20201;-90
2022/04/23 09:55:46;;;;;;;17.53;15.93;;;16.80;99.90;;;;;;5055851;28;20207;-90
2022/04/23 09:58:17;;;;;;;18.30;16.50;;;16.90;99.90;;;;;;5055559;28;20210;-91
2022/04/23 10:00:51;;;;;;;16.70;15.30;;;16.90;99.90;;;;;;5055235;28;20208;-88
2022/04/23 10:03:18;;;;;;;17.73;16.00;;;17.00;99.90;;;;;;5055337;28;20313;-91
2022/04/23 10:05:47;;;;;;;18.13;16.53;;;17.30;99.90;;;;;;5064344;28;20209;-90
2022/04/23 10:08:17;;;;;;;16.90;15.30;;;17.30;99.90;;;;;;5075315;28;20680;-90
2022/04/23 10:10:54;;;;;;;20.00;16.53;;;17.40;99.90;;;;;;5075070;28;20667;-90
2022/04/23 10:13:25;;;;;;;17.60;15.40;;;17.40;99.90;;;;;;5075016;28;20197;-90
2022/04/23 10:15:59;;;;;;;17.10;15.30;;;17.60;99.90;;;;;;5074984;28;20197;-89
2022/04/23 10:18:26;;;;;;;25.20;15.50;;;17.70;99.90;;;;;;5074936;28;20313;-89
2022/04/23 10:21:07;;;;;;;16.57;14.87;;;17.80;99.90;;;;;;5074427;28;20198;-91
2022/04/23 10:23:50;;;;;;;16.83;15.23;;;17.90;99.90;;;;;;5074710;28;20653;-90
2022/04/23 10:26:33;;;;;;;17.50;15.87;;;18.00;99.90;;;;;;5074563;28;20202;-86
2022/04/23 10:29:08;;;;;;;18.67;15.57;;;17.90;99.90;;;;;;5073498;28;20201;-86
2022/04/23 10:31:39;;;;;;;17.57;15.97;;;17.70;99.90;;;;;;5053596;28;20256;-88
2022/04/23 10:34:07;;;;;;;18.10;16.47;;;17.60;99.90;;;;;;5052556;28;20264;-90
2022/04/23 10:36:34;;;;;;;17.53;15.97;;;17.60;99.90;;;;;;5051766;28;20278;-88
2022/04/23 10:39:21;;;;;;;17.53;15.73;;;17.70;99.90;;;;;;5053974;28;20214;-84
2022/04/23 10:41:53;;;;;;;17.77;15.87;;;17.80;99.90;;;;;;5053727;28;20276;-87
2022/04/23 10:44:31;;;;;;;16.87;15.37;;;17.90;99.90;;;;;;5054539;28;20206;-87
2022/04/23 10:47:14;;;;;;;17.30;15.73;;;18.10;99.90;;;;;;5053979;28;20649;-87
2022/04/23 10:49:44;;;;;;;18.65;16.63;;;18.30;99.90;;;;;;5052489;28;20445;-87
2022/04/23 10:52:35;;;;;;;20.07;15.40;;;18.40;99.90;;;;;;5053870;28;20223;-84
2022/04/23 10:55:02;;;;;;;18.83;15.13;;;18.40;99.90;;;;;;5054343;28;20192;-87
2022/04/23 10:57:35;;;;;;;15.87;14.17;;;18.40;99.90;;;;;;5054463;28;20594;-87
2022/04/23 11:00:11;;;;;;;16.20;14.70;;;18.30;99.90;;;;;;5046523;28;20228;-86
2022/04/23 11:02:41;;;;;;;18.40;15.97;;;18.10;99.90;;;;;;5070084;28;20242;-87
2022/04/23 11:14:08;;;;;;;16.50;14.80;;;18.30;99.90;;;;;;5073473;28;20233;-85
2022/04/23 11:16:36;;;;;;;16.37;14.77;;;18.40;99.90;;;;;;5073606;28;20210;-86
2022/04/23 11:19:07;;;;;;;17.20;13.43;;;18.40;99.90;;;;;;5073282;28;20206;-86
2022/04/23 11:21:36;;;;;;;17.53;15.73;;;18.40;99.90;;;;;;5073668;28;20209;-86
2022/04/23 11:24:03;;;;;;;16.10;14.60;;;18.20;99.90;;;;;;5073646;28;20228;-86
2022/04/23 11:26:41;;;;;;;16.30;14.87;;;18.30;99.90;;;;;;5073187;28;20197;-85
2022/04/23 11:29:08;;;;;;;15.47;13.97;;;18.40;99.90;;;;;;5073056;28;20211;-88
2022/04/23 11:31:35;;;;;;;15.27;13.70;;;18.70;99.90;;;;;;5073253;28;20194;-85
2022/04/23 11:34:04;;;;;;;15.27;13.87;;;18.80;99.90;;;;;;5072952;28;20203;-83
2022/04/23 11:36:37;;;;;;;17.17;15.38;;;19.00;99.90;;;;;;5064814;28;20487;-88
2022/04/23 11:39:07;;;;;;;17.90;14.67;;;19.30;99.90;;;;;;5053023;28;20194;-88
2022/04/23 11:41:36;;;;;;;15.60;14.30;;;19.10;99.90;;;;;;5046233;28;20209;-83
2022/04/23 11:44:16;;;;;;;15.73;13.07;;;19.00;99.90;;;;;;5033061;28;20202;-86
2022/04/23 11:46:47;;;;;;;16.63;13.43;;;19.20;99.90;;;;;;5034074;28;20209;-90
2022/04/23 11:49:30;;;;;;;13.50;12.17;;;19.20;99.90;;;;;;5033980;28;20200;-86
2022/04/23 11:52:06;;;;;;;14.30;13.13;;;19.20;99.90;;;;;;5031787;28;20209;-86
2022/04/23 11:54:34;;;;;;;14.33;13.03;;;19.50;99.90;;;;;;5033721;28;20726;-87
2022/04/23 11:57:01;;;;;;;15.00;13.60;;;19.50;99.90;;;;;;5050287;28;20649;-83
2022/04/23 11:59:40;;;;;;;14.77;13.37;;;19.40;99.90;;;;;;5052921;28;20237;-87
2022/04/23 12:02:17;;;;;;;14.67;13.03;;;19.40;99.90;;;;;;5052048;28;20699;-83
2022/04/23 12:04:49;;;;;;;14.53;13.17;;;19.50;99.90;;;;;;5052285;28;20271;-86
2022/04/23 12:07:20;;;;;;;14.57;13.13;;;19.60;99.90;;;;;;5052666;28;20202;-85
2022/04/23 12:09:50;;;;;;;14.73;13.33;;;19.80;99.90;;;;;;5053059;28;20198;-87
2022/04/23 12:12:25;;;;;;;16.10;12.77;;;19.80;99.90;;;;;;5053474;28;20207;-87
2022/04/23 12:14:54;;;;;;;14.87;13.33;;;19.80;99.90;;;;;;5053445;28;20230;-84
2022/04/23 12:17:22;;;;;;;17.90;12.57;;;19.80;99.90;;;;;;5052065;28;20630;-83
2022/04/23 12:19:50;;;;;;;13.87;12.77;;;19.70;99.90;;;;;;5048997;28;20194;-87
2022/04/23 12:22:26;;;;;;;13.80;12.40;;;19.90;99.90;;;;;;5051230;28;20223;-87
2022/04/23 12:25:07;;;;;;;14.50;13.00;;;20.00;99.90;;;;;;5052054;28;20437;-86
2022/04/23 12:27:52;;;;;;;13.63;12.20;;;20.30;99.90;;;;;;5051760;28;20210;-86
2022/04/23 12:41:55;;;;;;;13.43;11.80;;;20.20;99.90;;;;;;5056516;28;20200;-88
2022/04/23 12:44:23;;;;;;;13.67;10.70;;;20.70;99.90;;;;;;5056580;28;20231;-88
2022/04/23 12:46:54;;;;;;;12.87;11.37;;;20.90;99.90;;;;;;5056319;28;20680;-87
2022/04/23 12:49:22;;;;;;;12.77;11.77;;;20.50;99.90;;;;;;5050990;28;20435;-89
2022/04/23 12:51:55;;;;;;;13.73;12.40;;;20.50;99.90;;;;;;5068927;28;20252;-87
2022/04/23 12:54:24;;;;;;;11.97;10.87;;;20.40;99.90;;;;;;5058198;28;20195;-89
2022/04/23 12:56:51;;;;;;;10.73;9.83;;;20.60;99.90;;;;;;5056239;28;20198;-86
2022/04/23 12:59:19;;;;;;;12.23;11.23;;;21.00;99.90;;;;;;5055645;28;20232;-89
2022/04/23 13:01:45;;;;;;;11.70;10.67;;;21.20;99.90;;;;;;5056276;28;20195;-90
2022/04/23 13:04:14;;;;;;;11.00;9.83;;;21.00;99.90;;;;;;5056329;28;20218;-88
2022/04/23 13:09:27;;;;;;;12.20;11.10;;;21.10;99.90;;;;;;5056818;28;20232;-87
2022/04/23 13:11:54;;;;;;;11.18;10.07;;;20.80;99.90;;;;;;5056896;28;20449;-91
2022/04/23 13:14:22;;;;;;;11.07;10.10;;;20.80;99.90;;;;;;5055546;28;20209;-88
2022/04/23 13:16:48;;;;;;;10.90;9.87;;;21.00;99.90;;;;;;5055460;28;20237;-91